sensor_id;sensor_type;location;lat;lon;timestamp;P1;durP1;ratioP1;P2;durP2;ratioP2
13764;SDS011;6953;48.810;9.204;2024-02-14T00:01:12;0.67;;;0.67;;
13764;SDS011;6953;48.810;9.204;2024-02-14T00:03:37;0.70;;;0.70;;
13764;SDS011;6953;48.810;9.204;2024-02-14T00:06:04;0.77;;;0.77;;
13764;SDS011;6953;48.810;9.204;2024-02-14T00:08:30;0.77;;;0.77;;
13764;SDS011;6953;48.810;9.204;2024-02-14T00:10:56;0.60;;;0.60;;
13764;SDS011;6953;48.810;9.204;2024-02-14T00:13:21;0.70;;;0.70;;
13764;SDS011;6953;48.810;9.204;2024-02-14T00:15:46;0.70;;;0.70;;
13764;SDS011;6953;48.810;9.204;2024-02-14T00:18:12;0.70;;;0.70;;
13764;SDS011;6953;48.810;9.204;2024-02-14T00:20:37;0.67;;;0.67;;
13764;SDS011;6953;48.810;9.204;2024-02-14T00:23:04;0.60;;;0.60;;
13764;SDS011;6953;48.810;9.204;2024-02-14T00:25:29;0.70;;;0.70;;
13764;SDS011;6953;48.810;9.204;2024-02-14T00:27:55;0.70;;;0.70;;
13764;SDS011;6953;48.810;9.204;2024-02-14T00:30:20;0.70;;;0.70;;
13764;SDS011;6953;48.810;9.204;2024-02-14T00:32:48;0.80;;;0.80;;
13764;SDS011;6953;48.810;9.204;2024-02-14T00:35:13;0.73;;;0.73;;
13764;SDS011;6953;48.810;9.204;2024-02-14T00:37:38;0.60;;;0.60;;
13764;SDS011;6953;48.810;9.204;2024-02-14T00:40:04;0.60;;;0.60;;
13764;SDS011;6953;48.810;9.204;2024-02-14T00:42:30;0.60;;;0.60;;
13764;SDS011;6953;48.810;9.204;2024-02-14T00:44:56;0.67;;;0.67;;
13764;SDS011;6953;48.810;9.204;2024-02-14T00:47:21;0.60;;;0.60;;
13764;SDS011;6953;48.810;9.204;2024-02-14T00:49:47;0.60;;;0.60;;
13764;SDS011;6953;48.810;9.204;2024-02-14T00:52:12;0.60;;;0.60;;
13764;SDS011;6953;48.810;9.204;2024-02-14T00:54:37;0.60;;;0.60;;
13764;SDS011;6953;48.810;9.204;2024-02-14T00:57:03;0.70;;;0.70;;
13764;SDS011;6953;48.810;9.204;2024-02-14T00:59:28;0.60;;;0.60;;
13764;SDS011;6953;48.810;9.204;2024-02-14T01:01:53;0.60;;;0.60;;
13764;SDS011;6953;48.810;9.204;2024-02-14T01:04:19;0.70;;;0.70;;
13764;SDS011;6953;48.810;9.204;2024-02-14T01:06:44;0.80;;;0.80;;
13764;SDS011;6953;48.810;9.204;2024-02-14T01:09:09;0.53;;;0.53;;
13764;SDS011;6953;48.810;9.204;2024-02-14T01:11:35;0.60;;;0.60;;
13764;SDS011;6953;48.810;9.204;2024-02-14T01:14:01;0.60;;;0.60;;
13764;SDS011;6953;48.810;9.204;2024-02-14T01:16:26;0.70;;;0.70;;
13764;SDS011;6953;48.810;9.204;2024-02-14T01:18:52;0.57;;;0.57;;
13764;SDS011;6953;48.810;9.204;2024-02-14T01:21:17;0.60;;;0.60;;
13764;SDS011;6953;48.810;9.204;2024-02-14T01:23:43;0.50;;;0.50;;
13764;SDS011;6953;48.810;9.204;2024-02-14T01:26:08;0.60;;;0.60;;
13764;SDS011;6953;48.810;9.204;2024-02-14T01:28:33;0.60;;;0.60;;
13764;SDS011;6953;48.810;9.204;2024-02-14T01:30:59;0.60;;;0.60;;
13764;SDS011;6953;48.810;9.204;2024-02-14T01:33:24;0.60;;;0.60;;
13764;SDS011;6953;48.810;9.204;2024-02-14T01:35:49;0.57;;;0.57;;
13764;SDS011;6953;48.810;9.204;2024-02-14T01:38:15;0.50;;;0.50;;
13764;SDS011;6953;48.810;9.204;2024-02-14T01:40:43;0.60;;;0.60;;
13764;SDS011;6953;48.810;9.204;2024-02-14T01:43:10;0.60;;;0.60;;
13764;SDS011;6953;48.810;9.204;2024-02-14T01:45:37;0.67;;;0.67;;
13764;SDS011;6953;48.810;9.204;2024-02-14T01:48:02;0.67;;;0.67;;
13764;SDS011;6953;48.810;9.204;2024-02-14T01:50:31;0.50;;;0.50;;
13764;SDS011;6953;48.810;9.204;2024-02-14T01:52:57;0.60;;;0.60;;
13764;SDS011;6953;48.810;9.204;2024-02-14T01:55:24;0.50;;;0.50;;
13764;SDS011;6953;48.810;9.204;2024-02-14T01:57:51;0.60;;;0.60;;
13764;SDS011;6953;48.810;9.204;2024-02-14T02:00:17;0.60;;;0.60;;
13764;SDS011;6953;48.810;9.204;2024-02-14T02:02:43;0.70;;;0.70;;
13764;SDS011;6953;48.810;9.204;2024-02-14T02:05:09;0.80;;;0.80;;
13764;SDS011;6953;48.810;9.204;2024-02-14T02:07:34;0.50;;;0.50;;
13764;SDS011;6953;48.810;9.204;2024-02-14T02:10:00;0.60;;;0.60;;
13764;SDS011;6953;48.810;9.204;2024-02-14T02:12:26;0.60;;;0.60;;
13764;SDS011;6953;48.810;9.204;2024-02-14T02:14:52;0.60;;;0.60;;
13764;SDS011;6953;48.810;9.204;2024-02-14T02:17:18;0.70;;;0.70;;
13764;SDS011;6953;48.810;9.204;2024-02-14T02:19:43;0.60;;;0.60;;
13764;SDS011;6953;48.810;9.204;2024-02-14T02:22:09;0.60;;;0.60;;
13764;SDS011;6953;48.810;9.204;2024-02-14T02:24:34;0.53;;;0.53;;
13764;SDS011;6953;48.810;9.204;2024-02-14T02:27:01;0.60;;;0.60;;
13764;SDS011;6953;48.810;9.204;2024-02-14T02:29:27;0.60;;;0.60;;
13764;SDS011;6953;48.810;9.204;2024-02-14T02:31:52;0.60;;;0.60;;
13764;SDS011;6953;48.810;9.204;2024-02-14T02:34:17;0.57;;;0.57;;
13764;SDS011;6953;48.810;9.204;2024-02-14T02:36:43;0.60;;;0.60;;
13764;SDS011;6953;48.810;9.204;2024-02-14T02:39:08;0.60;;;0.60;;
13764;SDS011;6953;48.810;9.204;2024-02-14T02:41:34;0.60;;;0.60;;
13764;SDS011;6953;48.810;9.204;2024-02-14T02:44:00;0.67;;;0.67;;
13764;SDS011;6953;48.810;9.204;2024-02-14T02:46:26;0.60;;;0.60;;
13764;SDS011;6953;48.810;9.204;2024-02-14T02:48:52;0.63;;;0.63;;
13764;SDS011;6953;48.810;9.204;2024-02-14T02:51:19;0.70;;;0.70;;
13764;SDS011;6953;48.810;9.204;2024-02-14T02:53:45;0.60;;;0.60;;
13764;SDS011;6953;48.810;9.204;2024-02-14T02:56:10;0.63;;;0.63;;
13764;SDS011;6953;48.810;9.204;2024-02-14T02:58:37;0.50;;;0.50;;
13764;SDS011;6953;48.810;9.204;2024-02-14T03:01:03;0.67;;;0.67;;
13764;SDS011;6953;48.810;9.204;2024-02-14T03:03:32;0.50;;;0.50;;
13764;SDS011;6953;48.810;9.204;2024-02-14T03:05:58;0.60;;;0.60;;
13764;SDS011;6953;48.810;9.204;2024-02-14T03:08:24;0.50;;;0.50;;
13764;SDS011;6953;48.810;9.204;2024-02-14T03:10:51;0.50;;;0.50;;
13764;SDS011;6953;48.810;9.204;2024-02-14T03:13:16;0.57;;;0.57;;
13764;SDS011;6953;48.810;9.204;2024-02-14T03:15:44;0.63;;;0.63;;
13764;SDS011;6953;48.810;9.204;2024-02-14T03:18:11;0.60;;;0.60;;
13764;SDS011;6953;48.810;9.204;2024-02-14T03:20:37;0.70;;;0.70;;
13764;SDS011;6953;48.810;9.204;2024-02-14T03:23:02;0.60;;;0.60;;
13764;SDS011;6953;48.810;9.204;2024-02-14T03:25:29;0.60;;;0.60;;
13764;SDS011;6953;48.810;9.204;2024-02-14T03:27:54;0.60;;;0.60;;
13764;SDS011;6953;48.810;9.204;2024-02-14T03:30:22;0.60;;;0.60;;
13764;SDS011;6953;48.810;9.204;2024-02-14T03:32:49;0.50;;;0.50;;
13764;SDS011;6953;48.810;9.204;2024-02-14T03:35:15;0.53;;;0.53;;
13764;SDS011;6953;48.810;9.204;2024-02-14T03:37:41;0.60;;;0.60;;
13764;SDS011;6953;48.810;9.204;2024-02-14T03:40:09;0.60;;;0.60;;
13764;SDS011;6953;48.810;9.204;2024-02-14T03:42:35;0.60;;;0.60;;
13764;SDS011;6953;48.810;9.204;2024-02-14T03:45:00;0.70;;;0.70;;
13764;SDS011;6953;48.810;9.204;2024-02-14T03:47:33;0.60;;;0.60;;
13764;SDS011;6953;48.810;9.204;2024-02-14T03:49:59;0.60;;;0.60;;
13764;SDS011;6953;48.810;9.204;2024-02-14T03:52:25;0.60;;;0.60;;
13764;SDS011;6953;48.810;9.204;2024-02-14T03:54:50;0.50;;;0.50;;
13764;SDS011;6953;48.810;9.204;2024-02-14T03:57:16;0.50;;;0.50;;
13764;SDS011;6953;48.810;9.204;2024-02-14T03:59:43;0.53;;;0.53;;
13764;SDS011;6953;48.810;9.204;2024-02-14T04:02:08;0.60;;;0.60;;
13764;SDS011;6953;48.810;9.204;2024-02-14T04:04:37;0.60;;;0.60;;
13764;SDS011;6953;48.810;9.204;2024-02-14T04:07:04;0.50;;;0.50;;
13764;SDS011;6953;48.810;9.204;2024-02-14T04:09:32;0.50;;;0.50;;
13764;SDS011;6953;48.810;9.204;2024-02-14T04:11:58;0.50;;;0.50;;
13764;SDS011;6953;48.810;9.204;2024-02-14T04:14:23;0.50;;;0.50;;
13764;SDS011;6953;48.810;9.204;2024-02-14T04:16:48;0.40;;;0.40;;
13764;SDS011;6953;48.810;9.204;2024-02-14T04:19:14;0.37;;;0.37;;
13764;SDS011;6953;48.810;9.204;2024-02-14T04:21:43;0.50;;;0.50;;
13764;SDS011;6953;48.810;9.204;2024-02-14T04:24:09;0.40;;;0.40;;
13764;SDS011;6953;48.810;9.204;2024-02-14T04:26:34;0.60;;;0.60;;
13764;SDS011;6953;48.810;9.204;2024-02-14T04:29:00;0.50;;;0.50;;
13764;SDS011;6953;48.810;9.204;2024-02-14T04:31:26;0.40;;;0.40;;
13764;SDS011;6953;48.810;9.204;2024-02-14T04:33:52;0.60;;;0.60;;
13764;SDS011;6953;48.810;9.204;2024-02-14T04:36:18;0.50;;;0.50;;
13764;SDS011;6953;48.810;9.204;2024-02-14T04:38:46;0.50;;;0.50;;
13764;SDS011;6953;48.810;9.204;2024-02-14T04:41:12;0.50;;;0.50;;
13764;SDS011;6953;48.810;9.204;2024-02-14T04:43:39;0.53;;;0.53;;
13764;SDS011;6953;48.810;9.204;2024-02-14T04:46:05;0.50;;;0.50;;
13764;SDS011;6953;48.810;9.204;2024-02-14T04:48:35;0.50;;;0.50;;
13764;SDS011;6953;48.810;9.204;2024-02-14T04:51:02;0.53;;;0.53;;
13764;SDS011;6953;48.810;9.204;2024-02-14T04:53:27;0.60;;;0.60;;
13764;SDS011;6953;48.810;9.204;2024-02-14T04:55:53;0.50;;;0.50;;
13764;SDS011;6953;48.810;9.204;2024-02-14T04:58:19;0.40;;;0.40;;
13764;SDS011;6953;48.810;9.204;2024-02-14T05:00:44;0.60;;;0.60;;
13764;SDS011;6953;48.810;9.204;2024-02-14T05:03:10;0.60;;;0.60;;
13764;SDS011;6953;48.810;9.204;2024-02-14T05:05:35;0.57;;;0.57;;
13764;SDS011;6953;48.810;9.204;2024-02-14T05:08:01;0.60;;;0.60;;
13764;SDS011;6953;48.810;9.204;2024-02-14T05:10:27;0.50;;;0.50;;
13764;SDS011;6953;48.810;9.204;2024-02-14T05:12:53;0.50;;;0.50;;
13764;SDS011;6953;48.810;9.204;2024-02-14T05:15:19;0.57;;;0.57;;
13764;SDS011;6953;48.810;9.204;2024-02-14T05:17:44;0.50;;;0.50;;
13764;SDS011;6953;48.810;9.204;2024-02-14T05:20:10;0.50;;;0.50;;
13764;SDS011;6953;48.810;9.204;2024-02-14T05:22:36;0.50;;;0.50;;
13764;SDS011;6953;48.810;9.204;2024-02-14T05:25:02;0.60;;;0.60;;
13764;SDS011;6953;48.810;9.204;2024-02-14T05:27:29;0.50;;;0.50;;
13764;SDS011;6953;48.810;9.204;2024-02-14T05:29:55;0.57;;;0.57;;
13764;SDS011;6953;48.810;9.204;2024-02-14T05:32:20;0.60;;;0.60;;
13764;SDS011;6953;48.810;9.204;2024-02-14T05:34:45;0.57;;;0.57;;
13764;SDS011;6953;48.810;9.204;2024-02-14T05:37:11;0.43;;;0.43;;
13764;SDS011;6953;48.810;9.204;2024-02-14T05:39:36;0.60;;;0.60;;
13764;SDS011;6953;48.810;9.204;2024-02-14T05:42:01;0.50;;;0.50;;
13764;SDS011;6953;48.810;9.204;2024-02-14T05:44:27;0.50;;;0.50;;
13764;SDS011;6953;48.810;9.204;2024-02-14T05:46:54;0.60;;;0.60;;
13764;SDS011;6953;48.810;9.204;2024-02-14T05:49:19;0.60;;;0.60;;
13764;SDS011;6953;48.810;9.204;2024-02-14T05:51:46;0.50;;;0.50;;
13764;SDS011;6953;48.810;9.204;2024-02-14T05:54:11;0.50;;;0.50;;
13764;SDS011;6953;48.810;9.204;2024-02-14T05:56:37;0.50;;;0.50;;
13764;SDS011;6953;48.810;9.204;2024-02-14T05:59:02;0.40;;;0.40;;
13764;SDS011;6953;48.810;9.204;2024-02-14T06:01:27;0.53;;;0.53;;
13764;SDS011;6953;48.810;9.204;2024-02-14T06:03:53;0.60;;;0.60;;
13764;SDS011;6953;48.810;9.204;2024-02-14T06:06:19;0.50;;;0.50;;
13764;SDS011;6953;48.810;9.204;2024-02-14T06:08:44;0.63;;;0.63;;
13764;SDS011;6953;48.810;9.204;2024-02-14T06:11:09;0.53;;;0.53;;
13764;SDS011;6953;48.810;9.204;2024-02-14T06:13:35;0.47;;;0.47;;
13764;SDS011;6953;48.810;9.204;2024-02-14T06:16:03;0.63;;;0.63;;
13764;SDS011;6953;48.810;9.204;2024-02-14T06:18:29;0.60;;;0.60;;
13764;SDS011;6953;48.810;9.204;2024-02-14T06:20:56;0.63;;;0.63;;
13764;SDS011;6953;48.810;9.204;2024-02-14T06:23:21;0.50;;;0.50;;
13764;SDS011;6953;48.810;9.204;2024-02-14T06:25:46;0.60;;;0.60;;
13764;SDS011;6953;48.810;9.204;2024-02-14T06:28:11;0.50;;;0.50;;
13764;SDS011;6953;48.810;9.204;2024-02-14T06:30:37;0.60;;;0.60;;
13764;SDS011;6953;48.810;9.204;2024-02-14T06:33:02;0.60;;;0.60;;
13764;SDS011;6953;48.810;9.204;2024-02-14T06:35:28;0.50;;;0.50;;
13764;SDS011;6953;48.810;9.204;2024-02-14T06:37:54;0.60;;;0.60;;
13764;SDS011;6953;48.810;9.204;2024-02-14T06:40:21;0.50;;;0.50;;
13764;SDS011;6953;48.810;9.204;2024-02-14T06:42:47;0.50;;;0.50;;
13764;SDS011;6953;48.810;9.204;2024-02-14T06:45:15;0.50;;;0.50;;
13764;SDS011;6953;48.810;9.204;2024-02-14T06:47:42;0.50;;;0.50;;
13764;SDS011;6953;48.810;9.204;2024-02-14T06:50:09;0.50;;;0.50;;
13764;SDS011;6953;48.810;9.204;2024-02-14T06:52:34;0.50;;;0.50;;
13764;SDS011;6953;48.810;9.204;2024-02-14T06:54:59;0.40;;;0.40;;
13764;SDS011;6953;48.810;9.204;2024-02-14T06:57:25;0.60;;;0.60;;
13764;SDS011;6953;48.810;9.204;2024-02-14T06:59:51;0.50;;;0.50;;
13764;SDS011;6953;48.810;9.204;2024-02-14T07:02:16;0.40;;;0.40;;
13764;SDS011;6953;48.810;9.204;2024-02-14T07:04:41;0.60;;;0.60;;
13764;SDS011;6953;48.810;9.204;2024-02-14T07:07:07;0.50;;;0.50;;
13764;SDS011;6953;48.810;9.204;2024-02-14T07:09:32;0.50;;;0.50;;
13764;SDS011;6953;48.810;9.204;2024-02-14T07:12:00;0.50;;;0.50;;
13764;SDS011;6953;48.810;9.204;2024-02-14T07:14:26;0.50;;;0.50;;
13764;SDS011;6953;48.810;9.204;2024-02-14T07:16:53;0.60;;;0.60;;
13764;SDS011;6953;48.810;9.204;2024-02-14T07:19:19;0.60;;;0.60;;
13764;SDS011;6953;48.810;9.204;2024-02-14T07:21:44;0.50;;;0.50;;
13764;SDS011;6953;48.810;9.204;2024-02-14T07:24:09;0.50;;;0.50;;
13764;SDS011;6953;48.810;9.204;2024-02-14T07:26:35;0.50;;;0.50;;
13764;SDS011;6953;48.810;9.204;2024-02-14T07:29:00;0.50;;;0.50;;
13764;SDS011;6953;48.810;9.204;2024-02-14T07:31:28;0.50;;;0.50;;
13764;SDS011;6953;48.810;9.204;2024-02-14T07:33:55;0.40;;;0.40;;
13764;SDS011;6953;48.810;9.204;2024-02-14T07:36:21;0.45;;;0.45;;
13764;SDS011;6953;48.810;9.204;2024-02-14T07:38:47;0.57;;;0.57;;
13764;SDS011;6953;48.810;9.204;2024-02-14T07:41:12;0.50;;;0.50;;
13764;SDS011;6953;48.810;9.204;2024-02-14T07:43:38;0.50;;;0.50;;
13764;SDS011;6953;48.810;9.204;2024-02-14T07:46:03;0.50;;;0.50;;
13764;SDS011;6953;48.810;9.204;2024-02-14T07:48:30;0.40;;;0.40;;
13764;SDS011;6953;48.810;9.204;2024-02-14T07:50:56;0.50;;;0.50;;
13764;SDS011;6953;48.810;9.204;2024-02-14T07:53:21;0.50;;;0.50;;
13764;SDS011;6953;48.810;9.204;2024-02-14T07:55:46;0.50;;;0.50;;
13764;SDS011;6953;48.810;9.204;2024-02-14T07:58:12;0.30;;;0.30;;
13764;SDS011;6953;48.810;9.204;2024-02-14T08:00:37;0.50;;;0.50;;
13764;SDS011;6953;48.810;9.204;2024-02-14T08:03:03;0.50;;;0.50;;
13764;SDS011;6953;48.810;9.204;2024-02-14T08:05:28;0.55;;;0.55;;
13764;SDS011;6953;48.810;9.204;2024-02-14T08:07:54;0.40;;;0.40;;
13764;SDS011;6953;48.810;9.204;2024-02-14T08:10:19;0.50;;;0.50;;
13764;SDS011;6953;48.810;9.204;2024-02-14T08:12:45;0.40;;;0.40;;
13764;SDS011;6953;48.810;9.204;2024-02-14T08:15:10;0.50;;;0.50;;
13764;SDS011;6953;48.810;9.204;2024-02-14T08:17:35;0.50;;;0.50;;
13764;SDS011;6953;48.810;9.204;2024-02-14T08:20:01;0.50;;;0.50;;
13764;SDS011;6953;48.810;9.204;2024-02-14T08:22:28;0.50;;;0.50;;
13764;SDS011;6953;48.810;9.204;2024-02-14T08:24:54;0.43;;;0.43;;
13764;SDS011;6953;48.810;9.204;2024-02-14T08:27:20;0.50;;;0.50;;
13764;SDS011;6953;48.810;9.204;2024-02-14T08:29:47;0.57;;;0.57;;
13764;SDS011;6953;48.810;9.204;2024-02-14T08:32:12;0.50;;;0.50;;
13764;SDS011;6953;48.810;9.204;2024-02-14T08:34:38;0.43;;;0.43;;
13764;SDS011;6953;48.810;9.204;2024-02-14T08:37:03;0.30;;;0.30;;
13764;SDS011;6953;48.810;9.204;2024-02-14T08:39:28;0.40;;;0.40;;
13764;SDS011;6953;48.810;9.204;2024-02-14T08:41:54;0.52;;;0.52;;
13764;SDS011;6953;48.810;9.204;2024-02-14T08:44:19;0.50;;;0.50;;
13764;SDS011;6953;48.810;9.204;2024-02-14T08:46:44;0.50;;;0.50;;
13764;SDS011;6953;48.810;9.204;2024-02-14T08:49:13;0.50;;;0.50;;
13764;SDS011;6953;48.810;9.204;2024-02-14T08:51:39;0.40;;;0.40;;
13764;SDS011;6953;48.810;9.204;2024-02-14T08:54:04;0.45;;;0.45;;
13764;SDS011;6953;48.810;9.204;2024-02-14T08:56:34;0.50;;;0.50;;
13764;SDS011;6953;48.810;9.204;2024-02-14T08:59:00;0.40;;;0.40;;
13764;SDS011;6953;48.810;9.204;2024-02-14T09:01:27;0.30;;;0.30;;
13764;SDS011;6953;48.810;9.204;2024-02-14T09:03:53;0.40;;;0.40;;
13764;SDS011;6953;48.810;9.204;2024-02-14T09:06:18;0.30;;;0.30;;
13764;SDS011;6953;48.810;9.204;2024-02-14T09:08:44;0.50;;;0.50;;
13764;SDS011;6953;48.810;9.204;2024-02-14T09:11:09;0.30;;;0.30;;
13764;SDS011;6953;48.810;9.204;2024-02-14T09:13:34;0.40;;;0.40;;
13764;SDS011;6953;48.810;9.204;2024-02-14T09:16:00;0.28;;;0.28;;
13764;SDS011;6953;48.810;9.204;2024-02-14T09:18:25;0.40;;;0.40;;
13764;SDS011;6953;48.810;9.204;2024-02-14T09:20:51;0.30;;;0.30;;
13764;SDS011;6953;48.810;9.204;2024-02-14T09:23:17;0.30;;;0.30;;
13764;SDS011;6953;48.810;9.204;2024-02-14T09:25:47;0.30;;;0.30;;
13764;SDS011;6953;48.810;9.204;2024-02-14T09:28:13;0.20;;;0.20;;
13764;SDS011;6953;48.810;9.204;2024-02-14T09:30:39;0.40;;;0.40;;
13764;SDS011;6953;48.810;9.204;2024-02-14T09:33:04;0.40;;;0.40;;
13764;SDS011;6953;48.810;9.204;2024-02-14T09:35:30;0.40;;;0.40;;
13764;SDS011;6953;48.810;9.204;2024-02-14T09:37:55;0.30;;;0.30;;
13764;SDS011;6953;48.810;9.204;2024-02-14T09:40:21;0.30;;;0.30;;
13764;SDS011;6953;48.810;9.204;2024-02-14T09:42:53;0.30;;;0.30;;
13764;SDS011;6953;48.810;9.204;2024-02-14T09:45:20;0.50;;;0.50;;
13764;SDS011;6953;48.810;9.204;2024-02-14T09:47:49;0.30;;;0.30;;
13764;SDS011;6953;48.810;9.204;2024-02-14T09:50:14;0.40;;;0.40;;
13764;SDS011;6953;48.810;9.204;2024-02-14T09:52:42;0.20;;;0.20;;
13764;SDS011;6953;48.810;9.204;2024-02-14T09:55:09;0.30;;;0.30;;
13764;SDS011;6953;48.810;9.204;2024-02-14T09:57:37;0.30;;;0.30;;
13764;SDS011;6953;48.810;9.204;2024-02-14T10:00:06;0.30;;;0.30;;
13764;SDS011;6953;48.810;9.204;2024-02-14T10:02:34;0.30;;;0.30;;
13764;SDS011;6953;48.810;9.204;2024-02-14T10:05:00;0.40;;;0.40;;
13764;SDS011;6953;48.810;9.204;2024-02-14T10:07:25;0.30;;;0.30;;
13764;SDS011;6953;48.810;9.204;2024-02-14T10:09:51;0.30;;;0.30;;
13764;SDS011;6953;48.810;9.204;2024-02-14T10:12:16;0.30;;;0.30;;
13764;SDS011;6953;48.810;9.204;2024-02-14T10:14:42;0.22;;;0.22;;
13764;SDS011;6953;48.810;9.204;2024-02-14T10:17:08;0.20;;;0.20;;
13764;SDS011;6953;48.810;9.204;2024-02-14T10:19:35;0.20;;;0.20;;
13764;SDS011;6953;48.810;9.204;2024-02-14T10:22:01;0.10;;;0.10;;
13764;SDS011;6953;48.810;9.204;2024-02-14T10:24:30;0.10;;;0.10;;
13764;SDS011;6953;48.810;9.204;2024-02-14T10:26:56;0.15;;;0.15;;
13764;SDS011;6953;48.810;9.204;2024-02-14T10:29:24;0.10;;;0.10;;
13764;SDS011;6953;48.810;9.204;2024-02-14T10:31:49;0.13;;;0.13;;
13764;SDS011;6953;48.810;9.204;2024-02-14T10:34:15;0.10;;;0.10;;
13764;SDS011;6953;48.810;9.204;2024-02-14T10:36:42;0.10;;;0.10;;
13764;SDS011;6953;48.810;9.204;2024-02-14T10:39:09;0.10;;;0.10;;
13764;SDS011;6953;48.810;9.204;2024-02-14T10:41:35;0.00;;;0.00;;
13764;SDS011;6953;48.810;9.204;2024-02-14T10:44:02;0.10;;;0.10;;
13764;SDS011;6953;48.810;9.204;2024-02-14T10:46:35;0.10;;;0.10;;
13764;SDS011;6953;48.810;9.204;2024-02-14T10:49:03;0.00;;;0.00;;
13764;SDS011;6953;48.810;9.204;2024-02-14T10:51:34;0.10;;;0.10;;
13764;SDS011;6953;48.810;9.204;2024-02-14T10:54:00;0.03;;;0.03;;
13764;SDS011;6953;48.810;9.204;2024-02-14T10:56:31;0.10;;;0.10;;
13764;SDS011;6953;48.810;9.204;2024-02-14T10:58:57;0.00;;;0.00;;
13764;SDS011;6953;48.810;9.204;2024-02-14T11:01:24;0.00;;;0.00;;
13764;SDS011;6953;48.810;9.204;2024-02-14T11:03:51;0.00;;;0.00;;
13764;SDS011;6953;48.810;9.204;2024-02-14T11:06:17;0.10;;;0.10;;
13764;SDS011;6953;48.810;9.204;2024-02-14T11:08:54;0.10;;;0.10;;
13764;SDS011;6953;48.810;9.204;2024-02-14T11:11:27;0.10;;;0.10;;
13764;SDS011;6953;48.810;9.204;2024-02-14T11:13:54;0.10;;;0.10;;
13764;SDS011;6953;48.810;9.204;2024-02-14T11:16:26;0.20;;;0.20;;
13764;SDS011;6953;48.810;9.204;2024-02-14T11:18:53;0.10;;;0.10;;
13764;SDS011;6953;48.810;9.204;2024-02-14T11:21:42;0.10;;;0.10;;
13764;SDS011;6953;48.810;9.204;2024-02-14T11:24:10;0.10;;;0.10;;
13764;SDS011;6953;48.810;9.204;2024-02-14T11:29:16;0.20;;;0.20;;
13764;SDS011;6953;48.810;9.204;2024-02-14T11:31:42;0.15;;;0.15;;
13764;SDS011;6953;48.810;9.204;2024-02-14T11:34:08;0.20;;;0.20;;
13764;SDS011;6953;48.810;9.204;2024-02-14T11:36:36;0.20;;;0.20;;
13764;SDS011;6953;48.810;9.204;2024-02-14T11:39:02;0.20;;;0.20;;
13764;SDS011;6953;48.810;9.204;2024-02-14T11:41:29;0.25;;;0.25;;
13764;SDS011;6953;48.810;9.204;2024-02-14T11:43:54;0.20;;;0.20;;
13764;SDS011;6953;48.810;9.204;2024-02-14T11:46:19;0.30;;;0.30;;
13764;SDS011;6953;48.810;9.204;2024-02-14T11:48:45;0.30;;;0.30;;
13764;SDS011;6953;48.810;9.204;2024-02-14T11:51:13;0.20;;;0.20;;
13764;SDS011;6953;48.810;9.204;2024-02-14T11:53:39;0.20;;;0.20;;
13764;SDS011;6953;48.810;9.204;2024-02-14T11:56:06;0.10;;;0.10;;
13764;SDS011;6953;48.810;9.204;2024-02-14T11:58:31;0.20;;;0.20;;
13764;SDS011;6953;48.810;9.204;2024-02-14T12:00:56;0.20;;;0.20;;
13764;SDS011;6953;48.810;9.204;2024-02-14T12:03:22;0.30;;;0.30;;
13764;SDS011;6953;48.810;9.204;2024-02-14T12:05:52;0.20;;;0.20;;
13764;SDS011;6953;48.810;9.204;2024-02-14T12:08:18;0.20;;;0.20;;
13764;SDS011;6953;48.810;9.204;2024-02-14T12:10:45;0.20;;;0.20;;
13764;SDS011;6953;48.810;9.204;2024-02-14T12:13:15;0.30;;;0.30;;
13764;SDS011;6953;48.810;9.204;2024-02-14T12:15:44;0.20;;;0.20;;
13764;SDS011;6953;48.810;9.204;2024-02-14T12:18:10;0.30;;;0.30;;
13764;SDS011;6953;48.810;9.204;2024-02-14T12:20:36;0.32;;;0.32;;
13764;SDS011;6953;48.810;9.204;2024-02-14T12:23:02;0.20;;;0.20;;
13764;SDS011;6953;48.810;9.204;2024-02-14T12:25:29;0.20;;;0.20;;
13764;SDS011;6953;48.810;9.204;2024-02-14T12:27:56;0.20;;;0.20;;
13764;SDS011;6953;48.810;9.204;2024-02-14T12:30:22;0.20;;;0.20;;
13764;SDS011;6953;48.810;9.204;2024-02-14T12:32:58;0.13;;;0.13;;
13764;SDS011;6953;48.810;9.204;2024-02-14T12:35:24;0.20;;;0.20;;
13764;SDS011;6953;48.810;9.204;2024-02-14T12:37:50;0.20;;;0.20;;
13764;SDS011;6953;48.810;9.204;2024-02-14T12:40:19;0.20;;;0.20;;
13764;SDS011;6953;48.810;9.204;2024-02-14T12:42:45;0.25;;;0.25;;
13764;SDS011;6953;48.810;9.204;2024-02-14T12:45:10;0.20;;;0.20;;
13764;SDS011;6953;48.810;9.204;2024-02-14T12:47:36;0.20;;;0.20;;
13764;SDS011;6953;48.810;9.204;2024-02-14T12:50:02;0.20;;;0.20;;
13764;SDS011;6953;48.810;9.204;2024-02-14T12:52:28;0.20;;;0.20;;
13764;SDS011;6953;48.810;9.204;2024-02-14T12:54:54;0.20;;;0.20;;
13764;SDS011;6953;48.810;9.204;2024-02-14T12:57:19;0.20;;;0.20;;
13764;SDS011;6953;48.810;9.204;2024-02-14T12:59:46;0.20;;;0.20;;
13764;SDS011;6953;48.810;9.204;2024-02-14T13:02:12;0.20;;;0.20;;
13764;SDS011;6953;48.810;9.204;2024-02-14T13:04:37;0.20;;;0.20;;
13764;SDS011;6953;48.810;9.204;2024-02-14T13:07:03;0.20;;;0.20;;
13764;SDS011;6953;48.810;9.204;2024-02-14T13:09:29;0.20;;;0.20;;
13764;SDS011;6953;48.810;9.204;2024-02-14T13:11:54;0.20;;;0.20;;
13764;SDS011;6953;48.810;9.204;2024-02-14T13:14:19;0.20;;;0.20;;
13764;SDS011;6953;48.810;9.204;2024-02-14T13:16:45;0.20;;;0.20;;
13764;SDS011;6953;48.810;9.204;2024-02-14T13:19:10;0.20;;;0.20;;
13764;SDS011;6953;48.810;9.204;2024-02-14T13:21:36;0.20;;;0.20;;
13764;SDS011;6953;48.810;9.204;2024-02-14T13:24:01;0.20;;;0.20;;
13764;SDS011;6953;48.810;9.204;2024-02-14T13:26:27;0.20;;;0.20;;
13764;SDS011;6953;48.810;9.204;2024-02-14T13:28:53;0.20;;;0.20;;
13764;SDS011;6953;48.810;9.204;2024-02-14T13:31:19;0.15;;;0.15;;
13764;SDS011;6953;48.810;9.204;2024-02-14T13:33:44;0.17;;;0.17;;
13764;SDS011;6953;48.810;9.204;2024-02-14T13:36:09;0.20;;;0.20;;
13764;SDS011;6953;48.810;9.204;2024-02-14T13:38:35;0.20;;;0.20;;
13764;SDS011;6953;48.810;9.204;2024-02-14T13:41:00;0.20;;;0.20;;
13764;SDS011;6953;48.810;9.204;2024-02-14T13:43:26;0.20;;;0.20;;
13764;SDS011;6953;48.810;9.204;2024-02-14T13:45:51;0.22;;;0.22;;
13764;SDS011;6953;48.810;9.204;2024-02-14T13:48:17;0.20;;;0.20;;
13764;SDS011;6953;48.810;9.204;2024-02-14T13:50:42;0.20;;;0.20;;
13764;SDS011;6953;48.810;9.204;2024-02-14T13:53:07;0.20;;;0.20;;
13764;SDS011;6953;48.810;9.204;2024-02-14T13:55:33;0.20;;;0.20;;
13764;SDS011;6953;48.810;9.204;2024-02-14T13:57:58;0.30;;;0.30;;
13764;SDS011;6953;48.810;9.204;2024-02-14T14:00:24;0.20;;;0.20;;
13764;SDS011;6953;48.810;9.204;2024-02-14T14:02:49;0.20;;;0.20;;
13764;SDS011;6953;48.810;9.204;2024-02-14T14:05:14;0.20;;;0.20;;
13764;SDS011;6953;48.810;9.204;2024-02-14T14:07:40;0.30;;;0.30;;
13764;SDS011;6953;48.810;9.204;2024-02-14T14:10:08;0.25;;;0.25;;
13764;SDS011;6953;48.810;9.204;2024-02-14T14:12:34;0.20;;;0.20;;
13764;SDS011;6953;48.810;9.204;2024-02-14T14:15:00;0.20;;;0.20;;
13764;SDS011;6953;48.810;9.204;2024-02-14T14:17:26;0.20;;;0.20;;
13764;SDS011;6953;48.810;9.204;2024-02-14T14:19:52;0.22;;;0.22;;
13764;SDS011;6953;48.810;9.204;2024-02-14T14:22:19;0.20;;;0.20;;
13764;SDS011;6953;48.810;9.204;2024-02-14T14:24:45;0.20;;;0.20;;
13764;SDS011;6953;48.810;9.204;2024-02-14T14:27:10;0.30;;;0.30;;
13764;SDS011;6953;48.810;9.204;2024-02-14T14:29:42;0.20;;;0.20;;
13764;SDS011;6953;48.810;9.204;2024-02-14T14:32:07;0.30;;;0.30;;
13764;SDS011;6953;48.810;9.204;2024-02-14T14:34:33;0.30;;;0.30;;
13764;SDS011;6953;48.810;9.204;2024-02-14T14:36:59;0.20;;;0.20;;
13764;SDS011;6953;48.810;9.204;2024-02-14T14:39:24;0.20;;;0.20;;
13764;SDS011;6953;48.810;9.204;2024-02-14T14:41:50;0.30;;;0.30;;
13764;SDS011;6953;48.810;9.204;2024-02-14T14:44:17;0.20;;;0.20;;
13764;SDS011;6953;48.810;9.204;2024-02-14T14:46:42;0.30;;;0.30;;
13764;SDS011;6953;48.810;9.204;2024-02-14T14:49:09;0.30;;;0.30;;
13764;SDS011;6953;48.810;9.204;2024-02-14T14:51:34;0.30;;;0.30;;
13764;SDS011;6953;48.810;9.204;2024-02-14T14:54:00;0.30;;;0.30;;
13764;SDS011;6953;48.810;9.204;2024-02-14T14:56:26;0.30;;;0.30;;